Aviation Digital Data Service (ADDS)

Output produced by TAFs form (0513 UTC 22 July 2017)
found at http://www.aviationweather.gov/adds/tafs/
 
KGFL 212323Z 2200/2224 27008KT P6SM FEW200 
     FM220500 VRB03KT 4SM BR SCT250 
     TEMPO 2206/2210 2SM BR SCT250 
     FM221100 15004KT P6SM BCFG SCT035 OVC180 
     FM221500 10005KT P6SM BKN050 BKN120 BKN150